ORMM/BSR METAR and TAF weather

Enter ICAO airport designator
Station Type Date Time Source
ORMM METAR 2022/09/26 08:00 UTC NOAA

ORMM 260800Z 28022KT CAVOK 35/04 Q1009 NOSIG


Station Type Date Time Source
ORMM Decoded METAR 2022/09/26 08:00 UTC NOAA

Station name not available
Sep 26, 2022 - 04:00 AM EDT / 2022.09.26 0800 UTC
Wind: from the W (280 degrees) at 25 MPH (22 KT):0
Visibility: greater than 7 mile(s):0
Temperature: 95 F (35 C)
Dew Point: 39 F (4 C)
Relative Humidity: 14%
Pressure (altimeter): 29.80 in. Hg (1009 hPa)
ob: ORMM 260800Z 28022KT CAVOK 35/04 Q1009 NOSIG
cycle: 8

Station Type Date Time Source
ORMM TAF 2022/09/26 06:52 UTC NOAA

TAF ORMM 260400Z 2606/2706 28015KT CAVOK
TEMPO 2610/2616 G25KT 6000 NSC

Example: see airport list